Mengen-Hohentengen Airport EDTM

Flugplatz Daten

Name: Mengen-Hohentengen Airport

Ident: EDTM

Lat: 48,05389023

Long: 9,372777939

Platzhöhe: 1818 ft

IataCode:

City: Mengen

Metar

2018/05/15 01:56
KFSI 150156Z 24005KT 10SM SCT040 BKN150 OVC200 29/20 A2987 RMK AO2A LGT DSNT NW SLPNO ALSTG ESTMD WND DATA EDTMD RVRNO $

Taf

Gewünschte Webcam nicht vorhanden? Dann fügen Sie eine hinzu. Sie wird dann so schnell wie möglich freigeschaltet
Url: Title: